<?xml version="1.0" encoding="utf-8"?>
<gpx xmlns:xsi="http://www.w3.org/2001/XMLSchema-instance" xmlns:xsd="http://www.w3.org/2001/XMLSchema" version="1.1" creator="Shapelink.com" xmlns="http://www.topografix.com/GPX/1/1" xmlns:gpxtpx="http://www.garmin.com/xmlschemas/TrackPointExtension/v1">
  <metadata>
    <name>Gåing 3.96 km, 2012-11-10</name>
    <desc></desc>
    <author><name>Alexander Engvall</name></author> 
    <time>2012-11-11T00:23:53Z</time>
  </metadata>
  <trk>
    <name>Gåing 3.96 km, 2012-11-10</name>
    <trkseg>
      <trkpt lat="59.4597467" lon="17.8037289">
        <ele>43.8</ele>
        <time>2012-11-11T00:23:53Z</time>
      </trkpt>
      <trkpt lat="59.4598617" lon="17.8035503">
        <ele>37.6</ele>
        <time>2012-11-11T00:24:03Z</time>
      </trkpt>
      <trkpt lat="59.4598989" lon="17.8035278">
        <ele>36.4</ele>
        <time>2012-11-11T00:24:05Z</time>
      </trkpt>
      <trkpt lat="59.4599165" lon="17.8033877">
        <ele>32.8</ele>
        <time>2012-11-11T00:24:10Z</time>
      </trkpt>
      <trkpt lat="59.4599606" lon="17.8033616">
        <ele>33.2</ele>
        <time>2012-11-11T00:24:12Z</time>
      </trkpt>
      <trkpt lat="59.4600422" lon="17.803287">
        <ele>31</ele>
        <time>2012-11-11T00:24:18Z</time>
      </trkpt>
      <trkpt lat="59.460226" lon="17.8032335">
        <ele>27.4</ele>
        <time>2012-11-11T00:24:30Z</time>
      </trkpt>
      <trkpt lat="59.4603723" lon="17.8030979">
        <ele>29.4</ele>
        <time>2012-11-11T00:24:41Z</time>
      </trkpt>
      <trkpt lat="59.460406" lon="17.8030771">
        <ele>28.2</ele>
        <time>2012-11-11T00:24:43Z</time>
      </trkpt>
      <trkpt lat="59.4604335" lon="17.8030411">
        <ele>29.2</ele>
        <time>2012-11-11T00:24:45Z</time>
      </trkpt>
      <trkpt lat="59.460507" lon="17.8029685">
        <ele>30.6</ele>
        <time>2012-11-11T00:24:51Z</time>
      </trkpt>
      <trkpt lat="59.4605496" lon="17.8028384">
        <ele>28.6</ele>
        <time>2012-11-11T00:24:57Z</time>
      </trkpt>
      <trkpt lat="59.4605687" lon="17.8028007">
        <ele>27.6</ele>
        <time>2012-11-11T00:24:59Z</time>
      </trkpt>
      <trkpt lat="59.4606174" lon="17.8027438">
        <ele>24.6</ele>
        <time>2012-11-11T00:25:03Z</time>
      </trkpt>
      <trkpt lat="59.4606469" lon="17.802698">
        <ele>22.6</ele>
        <time>2012-11-11T00:25:06Z</time>
      </trkpt>
      <trkpt lat="59.4606799" lon="17.8026684">
        <ele>21.8</ele>
        <time>2012-11-11T00:25:08Z</time>
      </trkpt>
      <trkpt lat="59.4607059" lon="17.802627">
        <ele>22</ele>
        <time>2012-11-11T00:25:10Z</time>
      </trkpt>
      <trkpt lat="59.46084" lon="17.8024684">
        <ele>22.2</ele>
        <time>2012-11-11T00:25:20Z</time>
      </trkpt>
      <trkpt lat="59.4608566" lon="17.8024603">
        <ele>22.2</ele>
        <time>2012-11-11T00:25:21Z</time>
      </trkpt>
      <trkpt lat="59.4610307" lon="17.8023799">
        <ele>26.6</ele>
        <time>2012-11-11T00:25:33Z</time>
      </trkpt>
      <trkpt lat="59.4611945" lon="17.8022439">
        <ele>26.6</ele>
        <time>2012-11-11T00:25:46Z</time>
      </trkpt>
      <trkpt lat="59.4612522" lon="17.8021413">
        <ele>26.4</ele>
        <time>2012-11-11T00:25:52Z</time>
      </trkpt>
      <trkpt lat="59.4612535" lon="17.8019386">
        <ele>26.8</ele>
        <time>2012-11-11T00:25:59Z</time>
      </trkpt>
      <trkpt lat="59.4612483" lon="17.8018564">
        <ele>26.6</ele>
        <time>2012-11-11T00:26:02Z</time>
      </trkpt>
      <trkpt lat="59.4612478" lon="17.8017393">
        <ele>26.4</ele>
        <time>2012-11-11T00:26:07Z</time>
      </trkpt>
      <trkpt lat="59.4612379" lon="17.8015837">
        <ele>26</ele>
        <time>2012-11-11T00:26:13Z</time>
      </trkpt>
      <trkpt lat="59.461202" lon="17.8012294">
        <ele>21.6</ele>
        <time>2012-11-11T00:26:24Z</time>
      </trkpt>
      <trkpt lat="59.4611987" lon="17.8008581">
        <ele>19.6</ele>
        <time>2012-11-11T00:26:36Z</time>
      </trkpt>
      <trkpt lat="59.4612315" lon="17.8007992">
        <ele>19.2</ele>
        <time>2012-11-11T00:26:39Z</time>
      </trkpt>
      <trkpt lat="59.4613791" lon="17.8007902">
        <ele>20.8</ele>
        <time>2012-11-11T00:26:48Z</time>
      </trkpt>
      <trkpt lat="59.4615669" lon="17.8008377">
        <ele>21.2</ele>
        <time>2012-11-11T00:27:00Z</time>
      </trkpt>
      <trkpt lat="59.4617581" lon="17.8008699">
        <ele>20.6</ele>
        <time>2012-11-11T00:27:13Z</time>
      </trkpt>
      <trkpt lat="59.4619517" lon="17.800915">
        <ele>19.4</ele>
        <time>2012-11-11T00:27:26Z</time>
      </trkpt>
      <trkpt lat="59.4621306" lon="17.8009379">
        <ele>19.8</ele>
        <time>2012-11-11T00:27:37Z</time>
      </trkpt>
      <trkpt lat="59.4621724" lon="17.8009587">
        <ele>19.4</ele>
        <time>2012-11-11T00:27:40Z</time>
      </trkpt>
      <trkpt lat="59.4622734" lon="17.8009906">
        <ele>20.6</ele>
        <time>2012-11-11T00:27:47Z</time>
      </trkpt>
      <trkpt lat="59.4623175" lon="17.8009835">
        <ele>20.6</ele>
        <time>2012-11-11T00:27:50Z</time>
      </trkpt>
      <trkpt lat="59.4623608" lon="17.8009797">
        <ele>20.4</ele>
        <time>2012-11-11T00:27:53Z</time>
      </trkpt>
      <trkpt lat="59.4624355" lon="17.8009861">
        <ele>22.8</ele>
        <time>2012-11-11T00:27:57Z</time>
      </trkpt>
      <trkpt lat="59.4624978" lon="17.8009872">
        <ele>22.8</ele>
        <time>2012-11-11T00:28:01Z</time>
      </trkpt>
      <trkpt lat="59.462683" lon="17.8010035">
        <ele>22.4</ele>
        <time>2012-11-11T00:28:13Z</time>
      </trkpt>
      <trkpt lat="59.462867" lon="17.8009971">
        <ele>14.6</ele>
        <time>2012-11-11T00:28:28Z</time>
      </trkpt>
      <trkpt lat="59.4630488" lon="17.8010027">
        <ele>14.6</ele>
        <time>2012-11-11T00:28:40Z</time>
      </trkpt>
      <trkpt lat="59.4631286" lon="17.8010155">
        <ele>17.6</ele>
        <time>2012-11-11T00:28:45Z</time>
      </trkpt>
      <trkpt lat="59.4632405" lon="17.8009913">
        <ele>17</ele>
        <time>2012-11-11T00:28:53Z</time>
      </trkpt>
      <trkpt lat="59.4633228" lon="17.8009419">
        <ele>16.8</ele>
        <time>2012-11-11T00:28:59Z</time>
      </trkpt>
      <trkpt lat="59.4634084" lon="17.8008457">
        <ele>16</ele>
        <time>2012-11-11T00:29:05Z</time>
      </trkpt>
      <trkpt lat="59.4635802" lon="17.8007813">
        <ele>14.6</ele>
        <time>2012-11-11T00:29:26Z</time>
      </trkpt>
      <trkpt lat="59.4637428" lon="17.800831">
        <ele>13.2</ele>
        <time>2012-11-11T00:29:41Z</time>
      </trkpt>
      <trkpt lat="59.4639233" lon="17.8009012">
        <ele>13.8</ele>
        <time>2012-11-11T00:29:52Z</time>
      </trkpt>
      <trkpt lat="59.4641163" lon="17.8008896">
        <ele>14.6</ele>
        <time>2012-11-11T00:30:04Z</time>
      </trkpt>
      <trkpt lat="59.4643019" lon="17.8009033">
        <ele>13.6</ele>
        <time>2012-11-11T00:30:16Z</time>
      </trkpt>
      <trkpt lat="59.4644858" lon="17.8008938">
        <ele>10.2</ele>
        <time>2012-11-11T00:30:29Z</time>
      </trkpt>
      <trkpt lat="59.464675" lon="17.8008685">
        <ele>4.2</ele>
        <time>2012-11-11T00:30:42Z</time>
      </trkpt>
      <trkpt lat="59.46485" lon="17.800826">
        <ele>5</ele>
        <time>2012-11-11T00:30:52Z</time>
      </trkpt>
      <trkpt lat="59.4650256" lon="17.8009099">
        <ele>2</ele>
        <time>2012-11-11T00:31:02Z</time>
      </trkpt>
      <trkpt lat="59.4651966" lon="17.8009176">
        <ele>0</ele>
        <time>2012-11-11T00:31:13Z</time>
      </trkpt>
      <trkpt lat="59.4652141" lon="17.8009248">
        <ele>0</ele>
        <time>2012-11-11T00:31:14Z</time>
      </trkpt>
      <trkpt lat="59.4653989" lon="17.8009587">
        <ele>0</ele>
        <time>2012-11-11T00:31:25Z</time>
      </trkpt>
      <trkpt lat="59.4655944" lon="17.8009385">
        <ele>0</ele>
        <time>2012-11-11T00:31:36Z</time>
      </trkpt>
      <trkpt lat="59.4657835" lon="17.8008903">
        <ele>0.4</ele>
        <time>2012-11-11T00:31:46Z</time>
      </trkpt>
      <trkpt lat="59.4659653" lon="17.800917">
        <ele>5.8</ele>
        <time>2012-11-11T00:31:54Z</time>
      </trkpt>
      <trkpt lat="59.4661518" lon="17.8009297">
        <ele>9.8</ele>
        <time>2012-11-11T00:32:04Z</time>
      </trkpt>
      <trkpt lat="59.4663377" lon="17.8009135">
        <ele>12</ele>
        <time>2012-11-11T00:32:13Z</time>
      </trkpt>
      <trkpt lat="59.4665318" lon="17.8008908">
        <ele>10.4</ele>
        <time>2012-11-11T00:32:24Z</time>
      </trkpt>
      <trkpt lat="59.466717" lon="17.8008258">
        <ele>8.6</ele>
        <time>2012-11-11T00:32:36Z</time>
      </trkpt>
      <trkpt lat="59.4669014" lon="17.8007647">
        <ele>7.6</ele>
        <time>2012-11-11T00:32:46Z</time>
      </trkpt>
      <trkpt lat="59.4670827" lon="17.8007038">
        <ele>11.6</ele>
        <time>2012-11-11T00:32:55Z</time>
      </trkpt>
      <trkpt lat="59.4671492" lon="17.8006583">
        <ele>12</ele>
        <time>2012-11-11T00:32:59Z</time>
      </trkpt>
      <trkpt lat="59.4672107" lon="17.8006259">
        <ele>12.4</ele>
        <time>2012-11-11T00:33:03Z</time>
      </trkpt>
      <trkpt lat="59.4672582" lon="17.8005976">
        <ele>11.8</ele>
        <time>2012-11-11T00:33:06Z</time>
      </trkpt>
      <trkpt lat="59.4674414" lon="17.8005063">
        <ele>9.2</ele>
        <time>2012-11-11T00:33:17Z</time>
      </trkpt>
      <trkpt lat="59.4676166" lon="17.8004085">
        <ele>12</ele>
        <time>2012-11-11T00:33:27Z</time>
      </trkpt>
      <trkpt lat="59.4677901" lon="17.8002578">
        <ele>17.2</ele>
        <time>2012-11-11T00:33:36Z</time>
      </trkpt>
      <trkpt lat="59.4679273" lon="17.8000198">
        <ele>15.8</ele>
        <time>2012-11-11T00:33:46Z</time>
      </trkpt>
      <trkpt lat="59.4680711" lon="17.7997921">
        <ele>12.6</ele>
        <time>2012-11-11T00:33:56Z</time>
      </trkpt>
      <trkpt lat="59.4681928" lon="17.7995253">
        <ele>11.8</ele>
        <time>2012-11-11T00:34:06Z</time>
      </trkpt>
      <trkpt lat="59.4683439" lon="17.7993285">
        <ele>10.6</ele>
        <time>2012-11-11T00:34:16Z</time>
      </trkpt>
      <trkpt lat="59.4685368" lon="17.7993124">
        <ele>8.2</ele>
        <time>2012-11-11T00:34:26Z</time>
      </trkpt>
      <trkpt lat="59.4687207" lon="17.799401">
        <ele>6.6</ele>
        <time>2012-11-11T00:34:35Z</time>
      </trkpt>
      <trkpt lat="59.4688802" lon="17.7995779">
        <ele>4.4</ele>
        <time>2012-11-11T00:34:45Z</time>
      </trkpt>
      <trkpt lat="59.4690609" lon="17.7997552">
        <ele>7.4</ele>
        <time>2012-11-11T00:34:56Z</time>
      </trkpt>
      <trkpt lat="59.4692266" lon="17.7999506">
        <ele>9.6</ele>
        <time>2012-11-11T00:35:05Z</time>
      </trkpt>
      <trkpt lat="59.4693127" lon="17.8001941">
        <ele>7.6</ele>
        <time>2012-11-11T00:35:13Z</time>
      </trkpt>
      <trkpt lat="59.4693298" lon="17.800249">
        <ele>6.4</ele>
        <time>2012-11-11T00:35:15Z</time>
      </trkpt>
      <trkpt lat="59.4694285" lon="17.8004513">
        <ele>4.4</ele>
        <time>2012-11-11T00:35:23Z</time>
      </trkpt>
      <trkpt lat="59.4694619" lon="17.8005277">
        <ele>4.2</ele>
        <time>2012-11-11T00:35:26Z</time>
      </trkpt>
      <trkpt lat="59.4694924" lon="17.8007706">
        <ele>2.8</ele>
        <time>2012-11-11T00:35:34Z</time>
      </trkpt>
      <trkpt lat="59.4694613" lon="17.8008566">
        <ele>4.8</ele>
        <time>2012-11-11T00:35:39Z</time>
      </trkpt>
      <trkpt lat="59.4694514" lon="17.8008904">
        <ele>5</ele>
        <time>2012-11-11T00:35:41Z</time>
      </trkpt>
      <trkpt lat="59.4694094" lon="17.8009928">
        <ele>5.6</ele>
        <time>2012-11-11T00:35:47Z</time>
      </trkpt>
      <trkpt lat="59.469376" lon="17.8010597">
        <ele>6.4</ele>
        <time>2012-11-11T00:35:51Z</time>
      </trkpt>
      <trkpt lat="59.4693518" lon="17.8011379">
        <ele>10.4</ele>
        <time>2012-11-11T00:35:55Z</time>
      </trkpt>
      <trkpt lat="59.4693474" lon="17.8011571">
        <ele>11.4</ele>
        <time>2012-11-11T00:35:56Z</time>
      </trkpt>
      <trkpt lat="59.4693083" lon="17.8013092">
        <ele>13.2</ele>
        <time>2012-11-11T00:36:02Z</time>
      </trkpt>
      <trkpt lat="59.4692727" lon="17.8014669">
        <ele>12.6</ele>
        <time>2012-11-11T00:36:08Z</time>
      </trkpt>
      <trkpt lat="59.4692587" lon="17.8015346">
        <ele>13.2</ele>
        <time>2012-11-11T00:36:10Z</time>
      </trkpt>
      <trkpt lat="59.4692495" lon="17.8016363">
        <ele>15.8</ele>
        <time>2012-11-11T00:36:14Z</time>
      </trkpt>
      <trkpt lat="59.4692209" lon="17.8018118">
        <ele>17.2</ele>
        <time>2012-11-11T00:36:20Z</time>
      </trkpt>
      <trkpt lat="59.4691604" lon="17.8020761">
        <ele>19.4</ele>
        <time>2012-11-11T00:36:29Z</time>
      </trkpt>
      <trkpt lat="59.4691731" lon="17.8021371">
        <ele>19.2</ele>
        <time>2012-11-11T00:36:31Z</time>
      </trkpt>
      <trkpt lat="59.4692443" lon="17.8021815">
        <ele>18</ele>
        <time>2012-11-11T00:36:36Z</time>
      </trkpt>
      <trkpt lat="59.4693531" lon="17.8022159">
        <ele>15.4</ele>
        <time>2012-11-11T00:36:43Z</time>
      </trkpt>
      <trkpt lat="59.4695184" lon="17.8023848">
        <ele>14.4</ele>
        <time>2012-11-11T00:36:54Z</time>
      </trkpt>
      <trkpt lat="59.4696712" lon="17.8025646">
        <ele>16.4</ele>
        <time>2012-11-11T00:37:03Z</time>
      </trkpt>
      <trkpt lat="59.4698017" lon="17.8028279">
        <ele>15.2</ele>
        <time>2012-11-11T00:37:13Z</time>
      </trkpt>
      <trkpt lat="59.4698042" lon="17.8028655">
        <ele>16</ele>
        <time>2012-11-11T00:37:14Z</time>
      </trkpt>
      <trkpt lat="59.4697453" lon="17.8030963">
        <ele>14.8</ele>
        <time>2012-11-11T00:37:22Z</time>
      </trkpt>
      <trkpt lat="59.4697227" lon="17.8031562">
        <ele>13.8</ele>
        <time>2012-11-11T00:37:24Z</time>
      </trkpt>
      <trkpt lat="59.4695867" lon="17.8034321">
        <ele>11.2</ele>
        <time>2012-11-11T00:37:34Z</time>
      </trkpt>
      <trkpt lat="59.4694618" lon="17.8036772">
        <ele>10.6</ele>
        <time>2012-11-11T00:37:44Z</time>
      </trkpt>
      <trkpt lat="59.4693079" lon="17.8038964">
        <ele>9</ele>
        <time>2012-11-11T00:37:54Z</time>
      </trkpt>
      <trkpt lat="59.4691795" lon="17.8041464">
        <ele>9.4</ele>
        <time>2012-11-11T00:38:04Z</time>
      </trkpt>
      <trkpt lat="59.4690227" lon="17.8043438">
        <ele>8.6</ele>
        <time>2012-11-11T00:38:15Z</time>
      </trkpt>
      <trkpt lat="59.4689888" lon="17.8044521">
        <ele>10.6</ele>
        <time>2012-11-11T00:38:19Z</time>
      </trkpt>
      <trkpt lat="59.4689195" lon="17.8046686">
        <ele>13.6</ele>
        <time>2012-11-11T00:38:27Z</time>
      </trkpt>
      <trkpt lat="59.4688541" lon="17.8050184">
        <ele>13.6</ele>
        <time>2012-11-11T00:38:38Z</time>
      </trkpt>
      <trkpt lat="59.4688428" lon="17.8050842">
        <ele>14</ele>
        <time>2012-11-11T00:38:40Z</time>
      </trkpt>
      <trkpt lat="59.4687983" lon="17.8053705">
        <ele>15.8</ele>
        <time>2012-11-11T00:38:49Z</time>
      </trkpt>
      <trkpt lat="59.4687418" lon="17.8057289">
        <ele>13.6</ele>
        <time>2012-11-11T00:39:01Z</time>
      </trkpt>
      <trkpt lat="59.4686641" lon="17.8060767">
        <ele>12.4</ele>
        <time>2012-11-11T00:39:11Z</time>
      </trkpt>
      <trkpt lat="59.4685838" lon="17.8064087">
        <ele>12.6</ele>
        <time>2012-11-11T00:39:21Z</time>
      </trkpt>
      <trkpt lat="59.4685582" lon="17.8067769">
        <ele>13.4</ele>
        <time>2012-11-11T00:39:32Z</time>
      </trkpt>
      <trkpt lat="59.4685486" lon="17.8069058">
        <ele>13.6</ele>
        <time>2012-11-11T00:39:36Z</time>
      </trkpt>
      <trkpt lat="59.4685062" lon="17.8071285">
        <ele>17.2</ele>
        <time>2012-11-11T00:39:43Z</time>
      </trkpt>
      <trkpt lat="59.4683305" lon="17.807303">
        <ele>17.2</ele>
        <time>2012-11-11T00:39:53Z</time>
      </trkpt>
      <trkpt lat="59.468144" lon="17.8074307">
        <ele>18.6</ele>
        <time>2012-11-11T00:40:03Z</time>
      </trkpt>
      <trkpt lat="59.4679841" lon="17.8075523">
        <ele>15.8</ele>
        <time>2012-11-11T00:40:13Z</time>
      </trkpt>
      <trkpt lat="59.4677876" lon="17.8077053">
        <ele>18</ele>
        <time>2012-11-11T00:40:24Z</time>
      </trkpt>
      <trkpt lat="59.4676173" lon="17.8077538">
        <ele>16.2</ele>
        <time>2012-11-11T00:40:34Z</time>
      </trkpt>
      <trkpt lat="59.4676027" lon="17.8077228">
        <ele>16.4</ele>
        <time>2012-11-11T00:40:35Z</time>
      </trkpt>
      <trkpt lat="59.4675774" lon="17.8076508">
        <ele>16.4</ele>
        <time>2012-11-11T00:40:38Z</time>
      </trkpt>
      <trkpt lat="59.4674934" lon="17.8074263">
        <ele>16.2</ele>
        <time>2012-11-11T00:40:44Z</time>
      </trkpt>
      <trkpt lat="59.4674265" lon="17.807091">
        <ele>16.8</ele>
        <time>2012-11-11T00:40:54Z</time>
      </trkpt>
      <trkpt lat="59.4673554" lon="17.8067257">
        <ele>16.8</ele>
        <time>2012-11-11T00:41:04Z</time>
      </trkpt>
      <trkpt lat="59.4673262" lon="17.8065858">
        <ele>16.8</ele>
        <time>2012-11-11T00:41:08Z</time>
      </trkpt>
      <trkpt lat="59.4672964" lon="17.8063765">
        <ele>17</ele>
        <time>2012-11-11T00:41:14Z</time>
      </trkpt>
      <trkpt lat="59.467242" lon="17.8060663">
        <ele>16</ele>
        <time>2012-11-11T00:41:24Z</time>
      </trkpt>
      <trkpt lat="59.4672356" lon="17.8060367">
        <ele>16</ele>
        <time>2012-11-11T00:41:25Z</time>
      </trkpt>
      <trkpt lat="59.4671992" lon="17.8058438">
        <ele>18</ele>
        <time>2012-11-11T00:41:32Z</time>
      </trkpt>
      <trkpt lat="59.4671748" lon="17.8057026">
        <ele>17</ele>
        <time>2012-11-11T00:41:35Z</time>
      </trkpt>
      <trkpt lat="59.4671241" lon="17.8053477">
        <ele>15.2</ele>
        <time>2012-11-11T00:41:46Z</time>
      </trkpt>
      <trkpt lat="59.4670421" lon="17.8049984">
        <ele>13.8</ele>
        <time>2012-11-11T00:41:57Z</time>
      </trkpt>
      <trkpt lat="59.4669587" lon="17.8046573">
        <ele>12.8</ele>
        <time>2012-11-11T00:42:09Z</time>
      </trkpt>
      <trkpt lat="59.466865" lon="17.8043381">
        <ele>12</ele>
        <time>2012-11-11T00:42:19Z</time>
      </trkpt>
      <trkpt lat="59.4668375" lon="17.8041979">
        <ele>11.6</ele>
        <time>2012-11-11T00:42:24Z</time>
      </trkpt>
      <trkpt lat="59.4667752" lon="17.8040393">
        <ele>8.4</ele>
        <time>2012-11-11T00:42:32Z</time>
      </trkpt>
      <trkpt lat="59.4666578" lon="17.8037311">
        <ele>6</ele>
        <time>2012-11-11T00:42:42Z</time>
      </trkpt>
      <trkpt lat="59.4665049" lon="17.8035302">
        <ele>6</ele>
        <time>2012-11-11T00:42:52Z</time>
      </trkpt>
      <trkpt lat="59.4664636" lon="17.8035061">
        <ele>5.8</ele>
        <time>2012-11-11T00:42:55Z</time>
      </trkpt>
      <trkpt lat="59.4663399" lon="17.8036597">
        <ele>5</ele>
        <time>2012-11-11T00:43:04Z</time>
      </trkpt>
      <trkpt lat="59.4661894" lon="17.8038554">
        <ele>5.6</ele>
        <time>2012-11-11T00:43:15Z</time>
      </trkpt>
      <trkpt lat="59.4660211" lon="17.8040434">
        <ele>8.8</ele>
        <time>2012-11-11T00:43:27Z</time>
      </trkpt>
      <trkpt lat="59.4658524" lon="17.8042241">
        <ele>9.4</ele>
        <time>2012-11-11T00:43:39Z</time>
      </trkpt>
      <trkpt lat="59.4656954" lon="17.8044221">
        <ele>8.2</ele>
        <time>2012-11-11T00:43:50Z</time>
      </trkpt>
      <trkpt lat="59.4655292" lon="17.8046054">
        <ele>9.2</ele>
        <time>2012-11-11T00:44:02Z</time>
      </trkpt>
      <trkpt lat="59.4655007" lon="17.8046127">
        <ele>9.2</ele>
        <time>2012-11-11T00:44:04Z</time>
      </trkpt>
      <trkpt lat="59.4653497" lon="17.8046112">
        <ele>9.2</ele>
        <time>2012-11-11T00:44:14Z</time>
      </trkpt>
      <trkpt lat="59.4651718" lon="17.8046608">
        <ele>13.6</ele>
        <time>2012-11-11T00:44:25Z</time>
      </trkpt>
      <trkpt lat="59.4649759" lon="17.804709">
        <ele>15.4</ele>
        <time>2012-11-11T00:44:37Z</time>
      </trkpt>
      <trkpt lat="59.4648531" lon="17.8047898">
        <ele>18</ele>
        <time>2012-11-11T00:44:44Z</time>
      </trkpt>
      <trkpt lat="59.4647934" lon="17.8048231">
        <ele>20.2</ele>
        <time>2012-11-11T00:44:49Z</time>
      </trkpt>
      <trkpt lat="59.464621" lon="17.8049345">
        <ele>23.6</ele>
        <time>2012-11-11T00:45:02Z</time>
      </trkpt>
      <trkpt lat="59.4644779" lon="17.8049805">
        <ele>24.8</ele>
        <time>2012-11-11T00:45:12Z</time>
      </trkpt>
      <trkpt lat="59.4644304" lon="17.8049757">
        <ele>25</ele>
        <time>2012-11-11T00:45:15Z</time>
      </trkpt>
      <trkpt lat="59.4642458" lon="17.8050745">
        <ele>28.8</ele>
        <time>2012-11-11T00:45:27Z</time>
      </trkpt>
      <trkpt lat="59.4640902" lon="17.8052664">
        <ele>33.6</ele>
        <time>2012-11-11T00:45:38Z</time>
      </trkpt>
      <trkpt lat="59.4639777" lon="17.8055771">
        <ele>35.4</ele>
        <time>2012-11-11T00:45:49Z</time>
      </trkpt>
      <trkpt lat="59.4639311" lon="17.805629">
        <ele>34.2</ele>
        <time>2012-11-11T00:45:52Z</time>
      </trkpt>
      <trkpt lat="59.4638585" lon="17.8056745">
        <ele>33.4</ele>
        <time>2012-11-11T00:45:56Z</time>
      </trkpt>
      <trkpt lat="59.4637922" lon="17.8057">
        <ele>33</ele>
        <time>2012-11-11T00:46:00Z</time>
      </trkpt>
      <trkpt lat="59.4637037" lon="17.8057145">
        <ele>32</ele>
        <time>2012-11-11T00:46:05Z</time>
      </trkpt>
      <trkpt lat="59.4636172" lon="17.8056347">
        <ele>31</ele>
        <time>2012-11-11T00:46:11Z</time>
      </trkpt>
      <trkpt lat="59.4635928" lon="17.8056172">
        <ele>31.4</ele>
        <time>2012-11-11T00:46:13Z</time>
      </trkpt>
      <trkpt lat="59.4635302" lon="17.8055543">
        <ele>31.6</ele>
        <time>2012-11-11T00:46:18Z</time>
      </trkpt>
      <trkpt lat="59.4634436" lon="17.8055074">
        <ele>35.8</ele>
        <time>2012-11-11T00:46:23Z</time>
      </trkpt>
      <trkpt lat="59.4634141" lon="17.8054985">
        <ele>35.2</ele>
        <time>2012-11-11T00:46:25Z</time>
      </trkpt>
      <trkpt lat="59.4632566" lon="17.80549">
        <ele>36</ele>
        <time>2012-11-11T00:46:35Z</time>
      </trkpt>
      <trkpt lat="59.4630768" lon="17.8055156">
        <ele>35.6</ele>
        <time>2012-11-11T00:46:45Z</time>
      </trkpt>
      <trkpt lat="59.4630624" lon="17.8055159">
        <ele>35.4</ele>
        <time>2012-11-11T00:46:46Z</time>
      </trkpt>
      <trkpt lat="59.4629603" lon="17.8055055">
        <ele>34.2</ele>
        <time>2012-11-11T00:46:52Z</time>
      </trkpt>
      <trkpt lat="59.4628898" lon="17.8055029">
        <ele>31.4</ele>
        <time>2012-11-11T00:46:56Z</time>
      </trkpt>
      <trkpt lat="59.4627101" lon="17.8055007">
        <ele>29.4</ele>
        <time>2012-11-11T00:47:06Z</time>
      </trkpt>
      <trkpt lat="59.4625226" lon="17.8055187">
        <ele>30</ele>
        <time>2012-11-11T00:47:17Z</time>
      </trkpt>
      <trkpt lat="59.4623605" lon="17.8056513">
        <ele>29</ele>
        <time>2012-11-11T00:47:30Z</time>
      </trkpt>
      <trkpt lat="59.4623527" lon="17.8056693">
        <ele>29.2</ele>
        <time>2012-11-11T00:47:31Z</time>
      </trkpt>
      <trkpt lat="59.4622331" lon="17.8058265">
        <ele>30.2</ele>
        <time>2012-11-11T00:47:41Z</time>
      </trkpt>
      <trkpt lat="59.462188" lon="17.805872">
        <ele>30.2</ele>
        <time>2012-11-11T00:47:44Z</time>
      </trkpt>
      <trkpt lat="59.4621704" lon="17.8058834">
        <ele>30.8</ele>
        <time>2012-11-11T00:47:45Z</time>
      </trkpt>
      <trkpt lat="59.4621033" lon="17.8059248">
        <ele>31</ele>
        <time>2012-11-11T00:47:49Z</time>
      </trkpt>
      <trkpt lat="59.4620117" lon="17.8059759">
        <ele>30.2</ele>
        <time>2012-11-11T00:47:54Z</time>
      </trkpt>
      <trkpt lat="59.4618966" lon="17.8059425">
        <ele>28.6</ele>
        <time>2012-11-11T00:48:00Z</time>
      </trkpt>
      <trkpt lat="59.4618703" lon="17.8058244">
        <ele>27.8</ele>
        <time>2012-11-11T00:48:04Z</time>
      </trkpt>
      <trkpt lat="59.4618655" lon="17.8057906">
        <ele>27.8</ele>
        <time>2012-11-11T00:48:05Z</time>
      </trkpt>
      <trkpt lat="59.4618361" lon="17.8056725">
        <ele>27.6</ele>
        <time>2012-11-11T00:48:09Z</time>
      </trkpt>
      <trkpt lat="59.461728" lon="17.8056297">
        <ele>27.8</ele>
        <time>2012-11-11T00:48:15Z</time>
      </trkpt>
      <trkpt lat="59.461632" lon="17.8056569">
        <ele>28.6</ele>
        <time>2012-11-11T00:48:22Z</time>
      </trkpt>
      <trkpt lat="59.4616124" lon="17.805815">
        <ele>28.8</ele>
        <time>2012-11-11T00:48:28Z</time>
      </trkpt>
      <trkpt lat="59.4616104" lon="17.8058534">
        <ele>28.6</ele>
        <time>2012-11-11T00:48:29Z</time>
      </trkpt>
      <trkpt lat="59.4616006" lon="17.8059823">
        <ele>28</ele>
        <time>2012-11-11T00:48:33Z</time>
      </trkpt>
      <trkpt lat="59.4616088" lon="17.8061831">
        <ele>28.2</ele>
        <time>2012-11-11T00:48:39Z</time>
      </trkpt>
      <trkpt lat="59.4616129" lon="17.8065553">
        <ele>29.4</ele>
        <time>2012-11-11T00:48:46Z</time>
      </trkpt>
      <trkpt lat="59.4616191" lon="17.8066444">
        <ele>28.2</ele>
        <time>2012-11-11T00:48:49Z</time>
      </trkpt>
      <trkpt lat="59.4617048" lon="17.8068342">
        <ele>26</ele>
        <time>2012-11-11T00:48:57Z</time>
      </trkpt>
      <trkpt lat="59.4618718" lon="17.8069946">
        <ele>23.6</ele>
        <time>2012-11-11T00:49:09Z</time>
      </trkpt>
      <trkpt lat="59.4619311" lon="17.8073354">
        <ele>22</ele>
        <time>2012-11-11T00:49:20Z</time>
      </trkpt>
      <trkpt lat="59.4619357" lon="17.8074276">
        <ele>20.4</ele>
        <time>2012-11-11T00:49:23Z</time>
      </trkpt>
      <trkpt lat="59.4619355" lon="17.8076923">
        <ele>18.2</ele>
        <time>2012-11-11T00:49:31Z</time>
      </trkpt>
      <trkpt lat="59.4619575" lon="17.80805">
        <ele>12.8</ele>
        <time>2012-11-11T00:49:42Z</time>
      </trkpt>
      <trkpt lat="59.4619728" lon="17.80818">
        <ele>12.2</ele>
        <time>2012-11-11T00:49:47Z</time>
      </trkpt>
      <trkpt lat="59.4620596" lon="17.8083385">
        <ele>10.8</ele>
        <time>2012-11-11T00:49:55Z</time>
      </trkpt>
      <trkpt lat="59.4621015" lon="17.8084647">
        <ele>10.2</ele>
        <time>2012-11-11T00:50:00Z</time>
      </trkpt>
      <trkpt lat="59.4621196" lon="17.8086898">
        <ele>8.8</ele>
        <time>2012-11-11T00:50:07Z</time>
      </trkpt>
      <trkpt lat="59.4620339" lon="17.8090192">
        <ele>20.8</ele>
        <time>2012-11-11T00:50:21Z</time>
      </trkpt>
      <trkpt lat="59.4619492" lon="17.8092903">
        <ele>29.2</ele>
        <time>2012-11-11T00:50:34Z</time>
      </trkpt>
      <trkpt lat="59.4619455" lon="17.8093479">
        <ele>29.6</ele>
        <time>2012-11-11T00:50:36Z</time>
      </trkpt>
      <trkpt lat="59.4619392" lon="17.8095089">
        <ele>29.6</ele>
        <time>2012-11-11T00:50:42Z</time>
      </trkpt>
      <trkpt lat="59.4619607" lon="17.8096632">
        <ele>28.6</ele>
        <time>2012-11-11T00:50:47Z</time>
      </trkpt>
      <trkpt lat="59.4619607" lon="17.8097317">
        <ele>28</ele>
        <time>2012-11-11T00:50:49Z</time>
      </trkpt>
      <trkpt lat="59.4619601" lon="17.8098706">
        <ele>27.2</ele>
        <time>2012-11-11T00:50:53Z</time>
      </trkpt>
      <trkpt lat="59.4619601" lon="17.8100938">
        <ele>25.6</ele>
        <time>2012-11-11T00:51:00Z</time>
      </trkpt>
      <trkpt lat="59.4619497" lon="17.8104769">
        <ele>18.6</ele>
        <time>2012-11-11T00:51:11Z</time>
      </trkpt>
      <trkpt lat="59.4619465" lon="17.8105461">
        <ele>17.8</ele>
        <time>2012-11-11T00:51:13Z</time>
      </trkpt>
      <trkpt lat="59.4619537" lon="17.8106708">
        <ele>13.8</ele>
        <time>2012-11-11T00:51:17Z</time>
      </trkpt>
      <trkpt lat="59.4619469" lon="17.8107071">
        <ele>13.2</ele>
        <time>2012-11-11T00:51:18Z</time>
      </trkpt>
      <trkpt lat="59.4619279" lon="17.8108066">
        <ele>10.6</ele>
        <time>2012-11-11T00:51:21Z</time>
      </trkpt>
      <trkpt lat="59.4619249" lon="17.8108362">
        <ele>10</ele>
        <time>2012-11-11T00:51:22Z</time>
      </trkpt>
      <trkpt lat="59.461985" lon="17.8110478">
        <ele>15.2</ele>
        <time>2012-11-11T00:51:29Z</time>
      </trkpt>
      <trkpt lat="59.4620002" lon="17.8110814">
        <ele>16.8</ele>
        <time>2012-11-11T00:51:30Z</time>
      </trkpt>
      <trkpt lat="59.4620367" lon="17.8111716">
        <ele>19</ele>
        <time>2012-11-11T00:51:33Z</time>
      </trkpt>
      <trkpt lat="59.4620573" lon="17.8112873">
        <ele>21.2</ele>
        <time>2012-11-11T00:51:36Z</time>
      </trkpt>
      <trkpt lat="59.4620864" lon="17.8115192">
        <ele>24.4</ele>
        <time>2012-11-11T00:51:43Z</time>
      </trkpt>
      <trkpt lat="59.4620876" lon="17.8115504">
        <ele>24.6</ele>
        <time>2012-11-11T00:51:44Z</time>
      </trkpt>
      <trkpt lat="59.4621047" lon="17.8116975">
        <ele>25.6</ele>
        <time>2012-11-11T00:51:48Z</time>
      </trkpt>
      <trkpt lat="59.4621386" lon="17.8118808">
        <ele>26.2</ele>
        <time>2012-11-11T00:51:53Z</time>
      </trkpt>
      <trkpt lat="59.4621969" lon="17.8122102">
        <ele>25</ele>
        <time>2012-11-11T00:52:03Z</time>
      </trkpt>
      <trkpt lat="59.4622009" lon="17.8122415">
        <ele>25.2</ele>
        <time>2012-11-11T00:52:04Z</time>
      </trkpt>
      <trkpt lat="59.4622194" lon="17.8123975">
        <ele>27.6</ele>
        <time>2012-11-11T00:52:09Z</time>
      </trkpt>
      <trkpt lat="59.4621505" lon="17.8125503">
        <ele>26.4</ele>
        <time>2012-11-11T00:52:15Z</time>
      </trkpt>
      <trkpt lat="59.4619891" lon="17.8127305">
        <ele>22.2</ele>
        <time>2012-11-11T00:52:27Z</time>
      </trkpt>
      <trkpt lat="59.4618264" lon="17.8129049">
        <ele>20.2</ele>
        <time>2012-11-11T00:52:37Z</time>
      </trkpt>
      <trkpt lat="59.4616477" lon="17.8130027">
        <ele>25</ele>
        <time>2012-11-11T00:52:47Z</time>
      </trkpt>
      <trkpt lat="59.4614625" lon="17.813107">
        <ele>31.2</ele>
        <time>2012-11-11T00:52:58Z</time>
      </trkpt>
      <trkpt lat="59.4612898" lon="17.8132515">
        <ele>33.4</ele>
        <time>2012-11-11T00:53:10Z</time>
      </trkpt>
      <trkpt lat="59.4611457" lon="17.8133799">
        <ele>32.4</ele>
        <time>2012-11-11T00:53:19Z</time>
      </trkpt>
      <trkpt lat="59.4611177" lon="17.8134028">
        <ele>32.6</ele>
        <time>2012-11-11T00:53:21Z</time>
      </trkpt>
      <trkpt lat="59.4609427" lon="17.8135328">
        <ele>34</ele>
        <time>2012-11-11T00:53:34Z</time>
      </trkpt>
      <trkpt lat="59.460772" lon="17.8136805">
        <ele>33</ele>
        <time>2012-11-11T00:53:45Z</time>
      </trkpt>
      <trkpt lat="59.4605951" lon="17.8137419">
        <ele>29.2</ele>
        <time>2012-11-11T00:53:55Z</time>
      </trkpt>
      <trkpt lat="59.4604766" lon="17.8134779">
        <ele>28</ele>
        <time>2012-11-11T00:54:06Z</time>
      </trkpt>
      <trkpt lat="59.4603894" lon="17.8131562">
        <ele>32.8</ele>
        <time>2012-11-11T00:54:18Z</time>
      </trkpt>
      <trkpt lat="59.4603545" lon="17.8129977">
        <ele>33</ele>
        <time>2012-11-11T00:54:24Z</time>
      </trkpt>
      <trkpt lat="59.4603028" lon="17.8128619">
        <ele>35.2</ele>
        <time>2012-11-11T00:54:30Z</time>
      </trkpt>
      <trkpt lat="59.4602157" lon="17.8125329">
        <ele>36.6</ele>
        <time>2012-11-11T00:54:41Z</time>
      </trkpt>
      <trkpt lat="59.4600877" lon="17.8122705">
        <ele>34.8</ele>
        <time>2012-11-11T00:54:51Z</time>
      </trkpt>
      <trkpt lat="59.4599643" lon="17.811977">
        <ele>35.2</ele>
        <time>2012-11-11T00:55:02Z</time>
      </trkpt>
      <trkpt lat="59.4599014" lon="17.8118423">
        <ele>34.6</ele>
        <time>2012-11-11T00:55:07Z</time>
      </trkpt>
      <trkpt lat="59.4598227" lon="17.8117187">
        <ele>33.4</ele>
        <time>2012-11-11T00:55:12Z</time>
      </trkpt>
      <trkpt lat="59.4598109" lon="17.8116953">
        <ele>32.8</ele>
        <time>2012-11-11T00:55:13Z</time>
      </trkpt>
      <trkpt lat="59.4596962" lon="17.811435">
        <ele>29.4</ele>
        <time>2012-11-11T00:55:24Z</time>
      </trkpt>
      <trkpt lat="59.4596324" lon="17.8112696">
        <ele>30</ele>
        <time>2012-11-11T00:55:30Z</time>
      </trkpt>
      <trkpt lat="59.4595891" lon="17.8111812">
        <ele>30.2</ele>
        <time>2012-11-11T00:55:34Z</time>
      </trkpt>
      <trkpt lat="59.4595808" lon="17.8111575">
        <ele>30.4</ele>
        <time>2012-11-11T00:55:35Z</time>
      </trkpt>
      <trkpt lat="59.4595597" lon="17.8111236">
        <ele>31.2</ele>
        <time>2012-11-11T00:55:37Z</time>
      </trkpt>
      <trkpt lat="59.4594669" lon="17.8108755">
        <ele>32.4</ele>
        <time>2012-11-11T00:55:46Z</time>
      </trkpt>
      <trkpt lat="59.4593934" lon="17.8105527">
        <ele>33.4</ele>
        <time>2012-11-11T00:55:57Z</time>
      </trkpt>
      <trkpt lat="59.4592913" lon="17.810245">
        <ele>35.8</ele>
        <time>2012-11-11T00:56:08Z</time>
      </trkpt>
      <trkpt lat="59.4591856" lon="17.8099258">
        <ele>36</ele>
        <time>2012-11-11T00:56:19Z</time>
      </trkpt>
      <trkpt lat="59.4591436" lon="17.8098042">
        <ele>35.2</ele>
        <time>2012-11-11T00:56:24Z</time>
      </trkpt>
      <trkpt lat="59.459097" lon="17.8095855">
        <ele>32.6</ele>
        <time>2012-11-11T00:56:32Z</time>
      </trkpt>
      <trkpt lat="59.4590248" lon="17.8092638">
        <ele>31.4</ele>
        <time>2012-11-11T00:56:42Z</time>
      </trkpt>
      <trkpt lat="59.4589742" lon="17.8089086">
        <ele>34.2</ele>
        <time>2012-11-11T00:56:52Z</time>
      </trkpt>
      <trkpt lat="59.458969" lon="17.8085205">
        <ele>36</ele>
        <time>2012-11-11T00:57:03Z</time>
      </trkpt>
      <trkpt lat="59.4589566" lon="17.8082932">
        <ele>35.4</ele>
        <time>2012-11-11T00:57:10Z</time>
      </trkpt>
      <trkpt lat="59.4589354" lon="17.8081631">
        <ele>34.6</ele>
        <time>2012-11-11T00:57:14Z</time>
      </trkpt>
      <trkpt lat="59.4589298" lon="17.8078932">
        <ele>35.8</ele>
        <time>2012-11-11T00:57:22Z</time>
      </trkpt>
      <trkpt lat="59.4589293" lon="17.8078208">
        <ele>35</ele>
        <time>2012-11-11T00:57:24Z</time>
      </trkpt>
      <trkpt lat="59.4589312" lon="17.8077876">
        <ele>34.8</ele>
        <time>2012-11-11T00:57:25Z</time>
      </trkpt>
      <trkpt lat="59.4589331" lon="17.807652">
        <ele>35.2</ele>
        <time>2012-11-11T00:57:29Z</time>
      </trkpt>
      <trkpt lat="59.4589438" lon="17.8074146">
        <ele>33.8</ele>
        <time>2012-11-11T00:57:36Z</time>
      </trkpt>
      <trkpt lat="59.4589362" lon="17.8071912">
        <ele>33</ele>
        <time>2012-11-11T00:57:43Z</time>
      </trkpt>
      <trkpt lat="59.4589385" lon="17.8070576">
        <ele>31.6</ele>
        <time>2012-11-11T00:57:47Z</time>
      </trkpt>
      <trkpt lat="59.4589375" lon="17.806694">
        <ele>30.8</ele>
        <time>2012-11-11T00:57:58Z</time>
      </trkpt>
      <trkpt lat="59.4588953" lon="17.8064319">
        <ele>29.6</ele>
        <time>2012-11-11T00:58:06Z</time>
      </trkpt>
      <trkpt lat="59.4589126" lon="17.806331">
        <ele>29.4</ele>
        <time>2012-11-11T00:58:09Z</time>
      </trkpt>
      <trkpt lat="59.4589953" lon="17.8059963">
        <ele>29</ele>
        <time>2012-11-11T00:58:20Z</time>
      </trkpt>
      <trkpt lat="59.4590592" lon="17.8058123">
        <ele>30.6</ele>
        <time>2012-11-11T00:58:28Z</time>
      </trkpt>
      <trkpt lat="59.459082" lon="17.8056649">
        <ele>30.2</ele>
        <time>2012-11-11T00:58:33Z</time>
      </trkpt>
      <trkpt lat="59.4591109" lon="17.8053058">
        <ele>29.6</ele>
        <time>2012-11-11T00:58:44Z</time>
      </trkpt>
      <trkpt lat="59.4590831" lon="17.8049409">
        <ele>32.6</ele>
        <time>2012-11-11T00:58:55Z</time>
      </trkpt>
      <trkpt lat="59.4590872" lon="17.8048339">
        <ele>34.2</ele>
        <time>2012-11-11T00:58:58Z</time>
      </trkpt>
      <trkpt lat="59.4591203" lon="17.8045718">
        <ele>31.6</ele>
        <time>2012-11-11T00:59:07Z</time>
      </trkpt>
      <trkpt lat="59.459113" lon="17.8045593">
        <ele>31.2</ele>
        <time>2012-11-11T00:59:08Z</time>
      </trkpt>
      <trkpt lat="59.4589799" lon="17.8044107">
        <ele>25.8</ele>
        <time>2012-11-11T00:59:18Z</time>
      </trkpt>
      <trkpt lat="59.4589719" lon="17.8043357">
        <ele>25.6</ele>
        <time>2012-11-11T00:59:20Z</time>
      </trkpt>
    </trkseg>
  </trk>
</gpx>